Aviation Digital Data Service (ADDS)

Output produced by METARs form (1422 UTC 07 December 2016)
found at http://aviationweather.gov/adds/metars/
 
KSAN 071202Z 0712/0818 VRB05KT P6SM SCT025 BKN035 
     TEMPO 0712/0714 BKN025 
     FM071700 18007KT P6SM BKN035 
     FM072000 27008KT P6SM SCT035 
     FM080100 VRB05KT P6SM SKC